TimeEST,TemperatureF,Dew PointF,Humidity,Sea Level PressureIn,VisibilityMPH,Wind Direction,Wind SpeedMPH,Gust SpeedMPH,PrecipitationIn,Events,Conditions,WindDirDegrees,DateUTC
12:17 AM,3.7,-2.0,77,29.43,10.0,NW,8.1,17.3,N/A,,Mostly Cloudy,320,2014-02-27 05:17:00
12:37 AM,2.3,-2.4,81,29.44,10.0,NW,10.4,16.1,N/A,,Clear,320,2014-02-27 05:37:00
12:57 AM,1.8,-3.6,78,29.44,10.0,NNW,9.2,-,N/A,,Clear,340,2014-02-27 05:57:00
1:18 AM,1.4,-3.6,79,29.44,10.0,NNW,9.2,18.4,N/A,,Clear,330,2014-02-27 06:18:00
1:37 AM,0.5,-4.2,81,29.45,10.0,NNW,8.1,-,N/A,,Clear,340,2014-02-27 06:37:00
1:57 AM,-0.0,-4.9,80,29.46,10.0,NNW,6.9,-,N/A,,Scattered Clouds,330,2014-02-27 06:57:00
2:18 AM,-0.4,-6.2,77,29.46,10.0,NW,6.9,-,N/A,,Overcast,320,2014-02-27 07:18:00
2:37 AM,-0.8,-6.9,75,29.47,10.0,NW,5.8,-,N/A,,Overcast,310,2014-02-27 07:37:00
2:57 AM,-1.3,-8.0,73,29.48,10.0,WNW,8.1,-,N/A,,Overcast,300,2014-02-27 07:57:00
3:18 AM,-1.3,-9.0,70,29.49,10.0,WNW,11.5,20.7,N/A,,Overcast,300,2014-02-27 08:18:00
3:37 AM,-1.7,-10.3,67,29.49,10.0,WNW,18.4,27.6,N/A,,Overcast,300,2014-02-27 08:37:00
3:57 AM,-2.6,-11.2,67,29.50,10.0,WNW,16.1,26.5,N/A,,Mostly Cloudy,300,2014-02-27 08:57:00
4:18 AM,-2.7,-12.1,64,29.50,10.0,WNW,17.3,29.9,N/A,,Scattered Clouds,290,2014-02-27 09:18:00
4:37 AM,-3.1,-11.2,68,29.51,10.0,West,19.6,26.5,N/A,,Clear,280,2014-02-27 09:37:00
4:57 AM,-3.5,-10.7,71,29.51,10.0,West,20.7,28.8,N/A,,Clear,270,2014-02-27 09:57:00
5:17 AM,-4.0,-10.5,74,29.52,10.0,West,17.3,28.8,N/A,,Clear,270,2014-02-27 10:17:00
5:37 AM,-3.8,-9.9,75,29.52,7.0,West,16.1,26.5,N/A,,Mostly Cloudy,280,2014-02-27 10:37:00
5:58 AM,-3.5,-8.5,79,29.54,4.0,West,21.9,29.9,N/A,,Haze,280,2014-02-27 10:58:00
6:17 AM,-3.1,-8.3,78,29.55,4.0,West,17.3,26.5,N/A,,Haze,280,2014-02-27 11:17:00
6:37 AM,-3.1,-8.1,79,29.56,5.0,WNW,18.4,27.6,N/A,,Haze,290,2014-02-27 11:37:00
6:58 AM,-2.9,-8.5,77,29.57,5.0,WNW,18.4,27.6,N/A,,Haze,290,2014-02-27 11:58:00
7:17 AM,-2.9,-8.0,79,29.59,4.0,NW,19.6,28.8,N/A,,Haze,310,2014-02-27 12:17:00
7:37 AM,-2.6,-7.6,79,29.62,2.0,NW,15.0,25.3,N/A,,Haze,310,2014-02-27 12:37:00
7:58 AM,-3.1,-8.3,78,29.64,2.0,NW,15.0,29.9,N/A,,Haze,320,2014-02-27 12:58:00
8:17 AM,-3.1,-8.0,80,29.67,1.5,NW,15.0,28.8,N/A,,Haze,320,2014-02-27 13:17:00
8:37 AM,-3.1,-8.7,77,29.69,1.8,NW,16.1,26.5,N/A,,Haze,320,2014-02-27 13:37:00
8:58 AM,-3.6,-9.9,74,29.71,3.0,NNW,18.4,28.8,N/A,,Haze,330,2014-02-27 13:58:00
9:17 AM,-3.6,-11.2,70,29.73,7.0,NW,21.9,31.1,N/A,,Overcast,320,2014-02-27 14:17:00
9:37 AM,-2.9,-11.4,67,29.75,10.0,NNW,17.3,31.1,N/A,,Mostly Cloudy,330,2014-02-27 14:37:00
9:58 AM,-2.2,-11.2,66,29.76,10.0,NNW,19.6,26.5,N/A,,Scattered Clouds,330,2014-02-27 14:58:00
10:17 AM,-1.7,-10.7,66,29.77,5.0,NW,15.0,26.5,N/A,,Haze,320,2014-02-27 15:17:00
10:38 AM,-0.9,-12.3,59,29.79,10.0,NNW,13.8,28.8,N/A,,Mostly Cloudy,330,2014-02-27 15:38:00
10:57 AM,-1.3,-11.7,61,29.80,7.0,NW,16.1,28.8,N/A,,Mostly Cloudy,320,2014-02-27 15:57:00
11:17 AM,-0.2,-11.7,58,29.82,10.0,NNW,16.1,25.3,N/A,,Scattered Clouds,330,2014-02-27 16:17:00
11:38 AM,0.3,-11.0,59,29.83,10.0,NW,13.8,28.8,N/A,,Mostly Cloudy,310,2014-02-27 16:38:00
11:57 AM,0.1,-11.0,59,29.85,10.0,NW,17.3,23.0,N/A,,Mostly Cloudy,310,2014-02-27 16:57:00
12:17 PM,0.5,-11.7,56,29.87,10.0,NW,16.1,25.3,N/A,,Mostly Cloudy,320,2014-02-27 17:17:00
12:38 PM,1.2,-11.6,55,29.88,10.0,WNW,16.1,25.3,N/A,,Mostly Cloudy,300,2014-02-27 17:38:00
12:57 PM,1.0,-12.8,52,29.89,10.0,WNW,12.7,26.5,N/A,,Scattered Clouds,300,2014-02-27 17:57:00
1:18 PM,0.9,-13.5,51,29.90,10.0,WNW,17.3,23.0,N/A,,Scattered Clouds,300,2014-02-27 18:18:00
1:38 PM,1.0,-14.6,48,29.92,10.0,NW,20.7,26.5,N/A,,Clear,310,2014-02-27 18:38:00
1:57 PM,1.4,-15.2,46,29.92,10.0,WNW,16.1,25.3,N/A,,Scattered Clouds,300,2014-02-27 18:57:00
2:18 PM,1.4,-13.9,49,29.94,10.0,WNW,16.1,25.3,N/A,,Scattered Clouds,300,2014-02-27 19:18:00
2:37 PM,0.5,-15.9,46,29.95,10.0,WNW,12.7,25.3,N/A,,Scattered Clouds,300,2014-02-27 19:37:00
2:58 PM,0.9,-16.4,44,29.96,10.0,NW,15.0,25.3,N/A,,Clear,310,2014-02-27 19:58:00
3:18 PM,1.0,-16.1,45,29.97,10.0,NW,12.7,24.2,N/A,,Clear,320,2014-02-27 20:18:00
3:37 PM,0.5,-16.2,45,29.98,10.0,WNW,13.8,25.3,N/A,,Scattered Clouds,290,2014-02-27 20:37:00
3:58 PM,0.5,-17.5,43,30.00,10.0,WNW,17.3,20.7,N/A,,Clear,290,2014-02-27 20:58:00
4:18 PM,0.1,-17.0,45,30.01,10.0,WNW,10.4,21.9,N/A,,Clear,300,2014-02-27 21:18:00
4:37 PM,-0.4,-18.4,43,30.02,10.0,WNW,16.1,21.9,N/A,,Scattered Clouds,300,2014-02-27 21:37:00
4:58 PM,-1.1,-17.9,45,30.04,10.0,WNW,15.0,23.0,N/A,,Clear,290,2014-02-27 21:58:00
5:18 PM,-2.7,-19.8,44,30.05,10.0,WNW,11.5,21.9,N/A,,Clear,300,2014-02-27 22:18:00
5:37 PM,-3.5,-19.5,46,30.05,10.0,WNW,12.7,18.4,N/A,,Clear,300,2014-02-27 22:37:00
5:58 PM,-4.0,-18.8,49,30.06,10.0,NW,10.4,17.3,N/A,,Clear,310,2014-02-27 22:58:00
6:18 PM,-4.9,-19.1,50,30.08,10.0,NW,11.5,19.6,N/A,,Clear,310,2014-02-27 23:18:00
6:37 PM,-5.8,-18.8,54,30.09,10.0,NW,10.4,-,N/A,,Clear,310,2014-02-27 23:37:00
6:58 PM,-6.3,-19.3,54,30.10,10.0,NW,9.2,-,N/A,,Clear,320,2014-02-27 23:58:00
7:18 PM,-7.2,-18.4,58,30.11,10.0,NW,8.1,-,N/A,,Clear,320,2014-02-28 00:18:00
7:37 PM,-7.6,-18.4,59,30.12,10.0,NW,6.9,-,N/A,,Clear,310,2014-02-28 00:37:00
7:58 PM,-8.3,-18.4,61,30.12,10.0,NW,6.9,-,N/A,,Clear,320,2014-02-28 00:58:00
8:17 PM,-9.4,-18.8,64,30.13,10.0,NW,5.8,-,N/A,,Clear,320,2014-02-28 01:17:00
8:38 PM,-9.8,-19.5,62,30.13,10.0,NW,5.8,-,N/A,,Clear,320,2014-02-28 01:38:00
8:58 PM,-10.5,-19.7,64,30.14,10.0,NW,5.8,-,N/A,,Clear,320,2014-02-28 01:58:00
9:17 PM,-11.2,-20.4,64,30.13,10.0,NNW,6.9,-,N/A,,Clear,340,2014-02-28 02:17:00
9:38 PM,-11.2,-21.5,60,30.14,10.0,NNW,6.9,-,N/A,,Clear,330,2014-02-28 02:38:00
9:58 PM,-11.2,-22.2,58,30.15,10.0,NW,4.6,-,N/A,,Clear,320,2014-02-28 02:58:00
10:17 PM,-11.9,-22.0,61,30.15,10.0,NW,4.6,-,N/A,,Clear,320,2014-02-28 03:17:00
10:38 PM,-12.3,-21.6,63,30.15,10.0,WNW,5.8,-,N/A,,Clear,300,2014-02-28 03:38:00
10:57 PM,-12.1,-21.1,64,30.16,10.0,WNW,5.8,-,N/A,,Clear,300,2014-02-28 03:57:00
11:17 PM,-12.6,-21.8,64,30.16,10.0,WNW,4.6,-,N/A,,Clear,290,2014-02-28 04:17:00
11:38 PM,-13.7,-21.8,67,30.17,10.0,WNW,4.6,-,N/A,,Clear,290,2014-02-28 04:38:00
11:57 PM,-15.5,-23.3,68,30.17,10.0,West,3.5,-,N/A,,Clear,280,2014-02-28 04:57:00